createdAt,value
2022-08-03T00:00:10.900Z,89.75
2022-08-03T00:01:10.136Z,90.22
2022-08-03T00:02:10.136Z,89.75
2022-08-03T00:03:10.239Z,90.13
2022-08-03T00:04:10.121Z,89.70
2022-08-03T00:05:10.333Z,89.89
2022-08-03T00:06:10.089Z,89.89
2022-08-03T00:07:10.090Z,90.08
2022-08-03T00:08:10.099Z,89.89
2022-08-03T00:09:10.118Z,90.85
2022-08-03T00:10:10.089Z,89.89
2022-08-03T00:11:10.075Z,89.89
2022-08-03T00:12:10.138Z,90.28
2022-08-03T00:13:10.058Z,90.37
2022-08-03T00:14:10.075Z,89.89
2022-08-03T00:15:15.116Z,89.99
2022-08-03T00:16:10.047Z,90.95
2022-08-03T00:17:10.038Z,91.05
2022-08-03T00:18:10.025Z,91.42
2022-08-03T00:19:10.012Z,91.52
2022-08-03T00:20:10.006Z,90.47
2022-08-03T00:21:10.020Z,91.24
2022-08-03T00:22:10.181Z,90.95
2022-08-03T00:23:10.014Z,90.71
2022-08-03T00:24:10.036Z,91.28
2022-08-03T00:25:09.999Z,91.57
2022-08-03T00:26:10.018Z,91.77
2022-08-03T00:27:10.022Z,91.86
2022-08-03T00:28:09.984Z,91.91
2022-08-03T00:29:09.988Z,91.96
2022-08-03T00:30:10.014Z,92.34
2022-08-03T00:31:13.517Z,92.24
2022-08-03T00:32:10.982Z,92.68
2022-08-03T00:33:09.952Z,92.72
2022-08-03T00:34:09.939Z,92.63
2022-08-03T00:35:16.348Z,91.96
2022-08-03T00:36:09.949Z,91.96
2022-08-03T00:37:09.947Z,92.24
2022-08-03T00:38:09.923Z,92.15
2022-08-03T00:39:09.928Z,92.44
2022-08-03T00:40:09.941Z,92.54
2022-08-03T00:41:09.909Z,92.72
2022-08-03T00:42:10.020Z,93.01
2022-08-03T00:43:09.910Z,92.82
2022-08-03T00:44:09.929Z,92.91
2022-08-03T00:45:09.891Z,93.49
2022-08-03T00:46:09.944Z,92.91
2022-08-03T00:47:09.887Z,93.30
2022-08-03T00:48:19.683Z,93.30
2022-08-03T00:49:09.920Z,92.82
2022-08-03T00:50:09.881Z,92.44
2022-08-03T00:51:09.871Z,92.82
2022-08-03T00:52:09.898Z,93.49
2022-08-03T00:53:09.873Z,93.21
2022-08-03T00:54:09.875Z,93.68
2022-08-03T00:55:09.866Z,94.26
2022-08-03T00:56:10.043Z,94.45
2022-08-03T00:57:09.834Z,94.93
2022-08-03T00:58:09.828Z,94.74
2022-08-03T00:59:09.823Z,94.74
2022-08-03T01:00:09.823Z,93.97
2022-08-03T01:01:09.849Z,94.54
2022-08-03T01:02:09.878Z,94.79
2022-08-03T01:03:09.789Z,94.79
2022-08-03T01:04:09.821Z,93.93
2022-08-03T01:05:09.798Z,93.88
2022-08-03T01:06:09.788Z,94.21
2022-08-03T01:07:10.827Z,94.31
2022-08-03T01:08:09.779Z,94.50
2022-08-03T01:09:09.800Z,94.50
2022-08-03T01:10:09.763Z,94.50
2022-08-03T01:11:09.969Z,94.31
2022-08-03T01:12:09.821Z,94.98
2022-08-03T01:14:00.246Z,94.98
2022-08-03T01:14:18.904Z,94.89
2022-08-03T01:15:09.921Z,94.50
2022-08-03T01:16:09.933Z,94.69
2022-08-03T01:17:09.720Z,94.50
2022-08-03T01:18:09.719Z,93.83
2022-08-03T01:19:09.700Z,93.26
2022-08-03T01:20:09.702Z,94.21
2022-08-03T01:21:09.914Z,93.63
2022-08-03T01:22:10.124Z,93.26
2022-08-03T01:23:09.919Z,93.54
2022-08-03T01:24:09.707Z,94.50
2022-08-03T01:25:09.675Z,93.83
2022-08-03T01:26:09.700Z,94.12
2022-08-03T01:27:09.696Z,93.06
2022-08-03T01:28:09.691Z,92.10
2022-08-03T01:29:09.668Z,92.68
2022-08-03T01:30:09.650Z,91.53
2022-08-03T01:31:09.657Z,92.10
2022-08-03T01:33:02.686Z,92.30
2022-08-03T01:33:10.138Z,91.72
2022-08-03T01:34:12.205Z,91.24
2022-08-03T01:35:09.661Z,91.96
2022-08-03T01:36:09.635Z,92.15
2022-08-03T01:37:09.626Z,92.44
2022-08-03T01:38:09.617Z,90.71
2022-08-03T01:39:09.641Z,90.90
2022-08-03T01:40:09.623Z,90.90
2022-08-03T01:41:09.595Z,91.00
2022-08-03T01:42:09.646Z,91.09
2022-08-03T01:43:09.784Z,91.38
2022-08-03T01:44:27.290Z,92.24
2022-08-03T01:45:09.579Z,92.72
2022-08-03T01:46:09.551Z,91.82
2022-08-03T01:47:09.569Z,92.49
2022-08-03T01:48:09.578Z,92.39
2022-08-03T01:49:09.707Z,93.44
2022-08-03T01:50:09.536Z,93.44
2022-08-03T01:51:09.693Z,93.26
2022-08-03T01:52:09.723Z,93.16
2022-08-03T01:53:09.627Z,93.16
2022-08-03T01:54:09.818Z,93.06
2022-08-03T01:55:09.734Z,93.06
2022-08-03T01:56:09.986Z,93.63
2022-08-03T01:57:09.662Z,93.93
2022-08-03T01:58:09.696Z,93.83
2022-08-03T01:59:09.825Z,94.59
2022-08-03T02:00:09.736Z,94.59
2022-08-03T02:01:09.753Z,95.17
2022-08-03T02:02:28.009Z,95.46
2022-08-03T02:03:09.728Z,95.46
2022-08-03T02:04:09.736Z,95.07
2022-08-03T02:05:10.959Z,94.79
2022-08-03T02:07:01.615Z,94.59
2022-08-03T02:07:09.814Z,94.59
2022-08-03T02:08:09.831Z,94.50
2022-08-03T02:09:09.541Z,93.83
2022-08-03T02:10:09.659Z,94.50
2022-08-03T02:11:09.671Z,94.40
2022-08-03T02:12:09.578Z,94.59
2022-08-03T02:13:09.610Z,95.46
2022-08-03T02:14:09.793Z,95.75
2022-08-03T02:15:09.642Z,94.89
2022-08-03T02:16:09.434Z,95.36
2022-08-03T02:17:09.505Z,93.93
2022-08-03T02:18:09.630Z,93.83
2022-08-03T02:19:09.362Z,93.44
2022-08-03T02:20:09.821Z,92.68
2022-08-03T02:21:11.295Z,91.72
2022-08-03T02:22:09.614Z,92.87
2022-08-03T02:23:09.668Z,92.39
2022-08-03T02:24:09.348Z,92.68
2022-08-03T02:25:09.672Z,92.68
2022-08-03T02:26:09.596Z,92.49
2022-08-03T02:27:09.553Z,92.30
2022-08-03T02:28:09.667Z,92.68
2022-08-03T02:29:09.627Z,93.16
2022-08-03T02:30:09.584Z,93.44
2022-08-03T02:31:09.533Z,92.58
2022-08-03T02:32:09.659Z,92.20
2022-08-03T02:33:09.498Z,92.49
2022-08-03T02:34:09.866Z,92.30
2022-08-03T02:35:09.291Z,92.39
2022-08-03T02:36:09.544Z,92.30
2022-08-03T02:37:09.615Z,92.77
2022-08-03T02:38:09.541Z,93.26
2022-08-03T02:39:09.669Z,92.87
2022-08-03T02:40:09.278Z,92.68
2022-08-03T02:41:09.500Z,92.77
2022-08-03T02:42:09.612Z,92.68
2022-08-03T02:43:09.559Z,92.68
2022-08-03T02:44:09.662Z,93.16
2022-08-03T02:45:09.655Z,94.21
2022-08-03T02:46:09.247Z,94.02
2022-08-03T02:47:09.454Z,93.88
2022-08-03T02:48:09.370Z,93.35
2022-08-03T02:49:49.891Z,93.26
2022-08-03T02:50:09.608Z,93.26
2022-08-03T02:51:09.427Z,93.26
2022-08-03T02:52:13.204Z,93.54
2022-08-03T02:53:09.215Z,93.35
2022-08-03T02:54:09.188Z,93.16
2022-08-03T02:55:09.430Z,92.77
2022-08-03T02:56:09.434Z,92.77
2022-08-03T02:57:09.427Z,92.77
2022-08-03T02:58:09.484Z,93.26
2022-08-03T02:59:09.391Z,92.20
2022-08-03T03:00:09.398Z,92.49
2022-08-03T03:01:09.159Z,92.20
2022-08-03T03:02:09.281Z,92.30
2022-08-03T03:03:09.421Z,91.82
2022-08-03T03:04:09.350Z,91.63
2022-08-03T03:05:55.894Z,93.26
2022-08-03T03:06:09.337Z,92.68
2022-08-03T03:07:09.353Z,92.30
2022-08-03T03:08:18.535Z,92.20
2022-08-03T03:09:09.266Z,91.63
2022-08-03T03:10:09.750Z,92.30
2022-08-03T03:11:09.334Z,92.87
2022-08-03T03:12:09.336Z,92.39
2022-08-03T03:13:09.344Z,91.53
2022-08-03T03:14:09.377Z,91.72
2022-08-03T03:15:09.305Z,92.68
2022-08-03T03:16:09.244Z,92.97
2022-08-03T03:17:09.397Z,93.44
2022-08-03T03:18:09.550Z,93.44
2022-08-03T03:19:09.198Z,93.35
2022-08-03T03:20:09.230Z,94.02
2022-08-03T03:21:09.245Z,94.12
2022-08-03T03:22:09.313Z,94.21
2022-08-03T03:23:09.359Z,94.55
2022-08-03T03:24:09.211Z,95.12
2022-08-03T03:25:09.274Z,95.22
2022-08-03T03:26:09.220Z,93.30
2022-08-03T03:27:09.251Z,92.35
2022-08-03T03:28:09.428Z,93.49
2022-08-03T03:29:09.242Z,94.26
2022-08-03T03:30:09.228Z,92.63
2022-08-03T03:31:08.981Z,91.67
2022-08-03T03:32:09.365Z,92.35
2022-08-03T03:33:09.230Z,92.92
2022-08-03T03:34:09.154Z,94.35
2022-08-03T03:35:08.935Z,94.26
2022-08-03T03:36:09.215Z,94.17
2022-08-03T03:37:09.375Z,93.98
2022-08-03T03:38:09.277Z,93.88
2022-08-03T03:39:15.789Z,93.88
2022-08-03T03:40:08.935Z,93.78
2022-08-03T03:41:08.912Z,93.69
2022-08-03T03:42:08.963Z,94.55
2022-08-03T03:43:08.893Z,95.31
2022-08-03T03:44:08.897Z,95.31
2022-08-03T03:45:08.889Z,95.60
2022-08-03T03:46:08.874Z,96.84
2022-08-03T03:47:08.946Z,96.37
2022-08-03T03:48:08.870Z,96.27
2022-08-03T03:49:08.945Z,96.47
2022-08-03T03:50:08.865Z,95.65
2022-08-03T03:51:08.844Z,96.13
2022-08-03T03:52:08.912Z,95.22
2022-08-03T03:53:09.321Z,94.74
2022-08-03T03:54:08.829Z,95.56
2022-08-03T03:55:08.824Z,96.66
2022-08-03T03:56:08.812Z,96.13
2022-08-03T03:57:08.804Z,96.56
2022-08-03T03:58:09.024Z,96.66
2022-08-03T03:59:08.803Z,96.56
2022-08-03T04:00:08.800Z,96.18
2022-08-03T04:01:08.882Z,95.79
2022-08-03T04:02:08.782Z,95.60
2022-08-03T04:03:08.779Z,95.60
2022-08-03T04:04:08.992Z,94.74
2022-08-03T04:05:08.772Z,94.31
2022-08-03T04:06:08.761Z,93.93
2022-08-03T04:07:08.761Z,93.44
2022-08-03T04:08:08.744Z,94.12
2022-08-03T04:09:08.759Z,93.16
2022-08-03T04:10:14.194Z,91.91
2022-08-03T04:11:08.724Z,92.20
2022-08-03T04:12:08.718Z,90.47
2022-08-03T04:13:08.726Z,90.04
2022-08-03T04:14:08.734Z,89.65
2022-08-03T04:15:08.705Z,89.27
2022-08-03T04:16:08.701Z,88.60
2022-08-03T04:17:08.685Z,87.88
2022-08-03T04:18:08.699Z,87.49
2022-08-03T04:19:08.884Z,86.72
2022-08-03T04:20:08.670Z,86.72
2022-08-03T04:21:08.672Z,86.72
2022-08-03T04:22:08.665Z,86.82
2022-08-03T04:23:15.427Z,86.92
2022-08-03T04:24:08.651Z,86.72
2022-08-03T04:25:08.657Z,86.82
2022-08-03T04:26:08.655Z,86.72
2022-08-03T04:27:08.845Z,87.40
2022-08-03T04:28:29.435Z,85.96
2022-08-03T04:29:08.629Z,85.86
2022-08-03T04:30:08.623Z,87.30
2022-08-03T04:31:08.616Z,87.30
2022-08-03T04:32:08.606Z,87.11
2022-08-03T04:33:08.635Z,86.54
2022-08-03T04:34:08.587Z,86.63
2022-08-03T04:35:08.595Z,86.44
2022-08-03T04:36:08.583Z,87.21
2022-08-03T04:37:08.587Z,86.82
2022-08-03T04:38:08.575Z,86.54
2022-08-03T04:39:08.586Z,86.34
2022-08-03T04:40:08.556Z,86.05
2022-08-03T04:41:08.580Z,86.72
2022-08-03T04:42:09.273Z,86.15
2022-08-03T04:43:08.563Z,85.77
2022-08-03T04:44:08.541Z,86.63
2022-08-03T04:45:08.551Z,86.87
2022-08-03T04:46:08.532Z,86.38
2022-08-03T04:47:08.525Z,85.81
2022-08-03T04:48:08.517Z,85.42
2022-08-03T04:49:08.608Z,85.14
2022-08-03T04:50:12.536Z,85.24
2022-08-03T04:51:08.512Z,86.00
2022-08-03T04:52:08.495Z,86.38
2022-08-03T04:53:08.504Z,86.34
2022-08-03T04:54:08.496Z,86.54
2022-08-03T04:55:08.485Z,86.58
2022-08-03T04:56:08.474Z,86.10
2022-08-03T04:57:08.476Z,85.24
2022-08-03T04:58:08.467Z,85.14
2022-08-03T04:59:08.465Z,85.81
2022-08-03T05:00:08.454Z,85.52
2022-08-03T05:01:08.452Z,85.52
2022-08-03T05:02:08.525Z,85.81
2022-08-03T05:03:20.187Z,85.91
2022-08-03T05:04:08.646Z,85.66
2022-08-03T05:05:08.436Z,84.89
2022-08-03T05:06:10.995Z,84.51
2022-08-03T05:07:11.667Z,84.22
2022-08-03T05:08:11.085Z,82.68
2022-08-03T05:09:08.619Z,83.16
2022-08-03T05:10:10.174Z,83.74
2022-08-03T05:11:08.411Z,83.78
2022-08-03T05:12:08.391Z,83.20
2022-08-03T05:13:08.595Z,81.96
2022-08-03T05:14:08.383Z,82.96
2022-08-03T05:15:08.402Z,81.42
2022-08-03T05:16:08.650Z,80.84
2022-08-03T05:17:08.370Z,80.17
2022-08-03T05:18:13.359Z,80.36
2022-08-03T05:19:08.359Z,81.76
2022-08-03T05:20:08.365Z,81.90
2022-08-03T05:21:08.349Z,81.76
2022-08-03T05:22:08.344Z,82.53
2022-08-03T05:23:08.343Z,81.96
2022-08-03T05:24:08.345Z,82.92
2022-08-03T05:25:08.786Z,83.59
2022-08-03T05:26:08.327Z,82.63
2022-08-03T05:27:08.326Z,82.05
2022-08-03T05:28:08.326Z,83.01
2022-08-03T05:29:08.310Z,83.07
2022-08-03T05:30:30.701Z,83.16
2022-08-03T05:31:08.306Z,83.78
2022-08-03T05:32:08.568Z,83.69
2022-08-03T05:33:08.295Z,83.49
2022-08-03T05:34:08.302Z,83.11
2022-08-03T05:36:01.413Z,84.36
2022-08-03T05:36:08.282Z,83.59
2022-08-03T05:37:08.283Z,82.09
2022-08-03T05:38:09.257Z,83.53
2022-08-03T05:39:08.536Z,83.34
2022-08-03T05:40:08.294Z,82.34
2022-08-03T05:41:22.724Z,83.30
2022-08-03T05:42:08.257Z,83.40
2022-08-03T05:43:08.275Z,83.40
2022-08-03T05:44:08.249Z,83.69
2022-08-03T05:45:08.246Z,84.78
2022-08-03T05:46:12.845Z,84.78
2022-08-03T05:47:08.237Z,83.15
2022-08-03T05:48:08.222Z,84.30
2022-08-03T05:49:08.279Z,83.83
2022-08-03T05:50:08.215Z,82.38
2022-08-03T05:51:08.221Z,82.29
2022-08-03T05:52:13.085Z,83.15
2022-08-03T05:53:08.483Z,83.06
2022-08-03T05:54:08.221Z,82.04
2022-08-03T05:55:08.197Z,81.94
2022-08-03T05:56:13.890Z,80.60
2022-08-03T05:57:08.197Z,81.56
2022-08-03T05:58:08.190Z,80.98
2022-08-03T05:59:35.885Z,78.90
2022-08-03T06:00:08.168Z,79.25
2022-08-03T06:01:08.302Z,78.67
2022-08-03T06:02:08.481Z,79.28
2022-08-03T06:03:08.155Z,79.10
2022-08-03T06:04:08.159Z,78.03
2022-08-03T06:05:08.194Z,77.84
2022-08-03T06:06:08.175Z,77.46
2022-08-03T06:07:08.336Z,77.46
2022-08-03T06:08:08.140Z,77.17
2022-08-03T06:09:08.140Z,77.94
2022-08-03T06:10:35.403Z,76.78
2022-08-03T06:11:08.137Z,76.98
2022-08-03T06:12:11.174Z,77.56
2022-08-03T06:13:08.119Z,77.17
2022-08-03T06:14:08.132Z,77.36
2022-08-03T06:15:08.310Z,77.56
2022-08-03T06:16:08.139Z,77.26
2022-08-03T06:17:08.133Z,78.42
2022-08-03T06:18:08.104Z,78.08
2022-08-03T06:19:08.082Z,77.50
2022-08-03T06:20:08.081Z,76.73
2022-08-03T06:21:14.366Z,76.25
2022-08-03T06:22:08.092Z,75.67
2022-08-03T06:23:08.097Z,75.57
2022-08-03T06:24:08.245Z,75.67
2022-08-03T06:25:10.232Z,76.34
2022-08-03T06:26:08.093Z,77.50
2022-08-03T06:27:08.054Z,76.96
2022-08-03T06:28:15.029Z,77.63
2022-08-03T06:29:08.639Z,78.11
2022-08-03T06:30:08.046Z,77.28
2022-08-03T06:31:08.035Z,75.84
2022-08-03T06:32:08.035Z,74.88
2022-08-03T06:33:08.397Z,74.10
2022-08-03T06:34:32.099Z,74.10
2022-08-03T06:35:08.046Z,75.45
2022-08-03T06:36:08.062Z,74.01
2022-08-03T06:37:08.045Z,74.49
2022-08-03T06:38:08.010Z,74.07
2022-08-03T06:39:08.116Z,75.55
2022-08-03T06:40:08.030Z,77.19
2022-08-03T06:41:08.006Z,76.90
2022-08-03T06:42:08.001Z,76.84
2022-08-03T06:43:12.201Z,76.65
2022-08-03T06:44:08.035Z,75.30
2022-08-03T06:45:08.360Z,74.37
2022-08-03T06:46:08.177Z,74.95
2022-08-03T06:47:07.993Z,73.31
2022-08-03T06:48:08.006Z,74.18
2022-08-03T06:49:08.265Z,73.79
2022-08-03T06:50:16.620Z,72.63
2022-08-03T06:51:07.977Z,73.99
2022-08-03T06:52:07.955Z,73.15
2022-08-03T06:53:07.969Z,71.80
2022-08-03T06:54:07.970Z,72.09
2022-08-03T06:55:07.950Z,71.51
2022-08-03T06:56:08.158Z,71.42
2022-08-03T06:57:07.951Z,71.22
2022-08-03T06:58:07.938Z,71.90
2022-08-03T06:59:07.949Z,71.64
2022-08-03T07:00:12.106Z,71.26
2022-08-03T07:01:07.996Z,72.13
2022-08-03T07:02:07.926Z,70.90
2022-08-03T07:03:07.946Z,69.07
2022-08-03T07:04:07.942Z,69.74
2022-08-03T07:05:07.956Z,69.36
2022-08-03T07:06:07.915Z,69.36
2022-08-03T07:07:07.935Z,69.17
2022-08-03T07:08:07.909Z,69.36
2022-08-03T07:09:08.102Z,69.26
2022-08-03T07:10:07.892Z,68.52
2022-08-03T07:11:07.905Z,68.14
2022-08-03T07:12:07.929Z,68.14
2022-08-03T07:13:07.916Z,69.49
2022-08-03T07:14:07.902Z,69.92
2022-08-03T07:15:07.901Z,69.92
2022-08-03T07:16:07.945Z,68.69
2022-08-03T07:17:11.679Z,67.91
2022-08-03T07:18:07.876Z,66.37
2022-08-03T07:19:07.862Z,66.85
2022-08-03T07:20:07.865Z,67.24
2022-08-03T07:21:07.880Z,67.56
2022-08-03T07:22:07.879Z,66.69
2022-08-03T07:23:07.861Z,67.02
2022-08-03T07:24:07.848Z,66.92
2022-08-03T07:25:07.845Z,64.98
2022-08-03T07:26:07.866Z,63.85
2022-08-03T07:27:07.876Z,65.69
2022-08-03T07:28:07.849Z,63.07
2022-08-03T07:29:14.763Z,63.17
2022-08-03T07:30:07.889Z,63.07
2022-08-03T07:31:07.893Z,62.69
2022-08-03T07:32:07.856Z,62.33
2022-08-03T07:33:07.869Z,62.52
2022-08-03T07:34:07.847Z,61.14
2022-08-03T07:35:08.710Z,62.20
2022-08-03T07:36:07.843Z,62.88
2022-08-03T07:37:07.820Z,63.75
2022-08-03T07:38:07.825Z,62.85
2022-08-03T07:39:15.994Z,63.53
2022-08-03T07:40:07.857Z,64.34
2022-08-03T07:41:07.822Z,63.37
2022-08-03T07:42:07.828Z,64.47
2022-08-03T07:43:07.812Z,63.01
2022-08-03T07:44:07.831Z,61.65
2022-08-03T07:45:07.815Z,64.30
2022-08-03T07:46:07.829Z,62.88
2022-08-03T07:47:07.832Z,61.22
2022-08-03T07:48:12.142Z,59.28
2022-08-03T07:49:07.903Z,61.13
2022-08-03T07:50:08.804Z,60.16
2022-08-03T07:51:07.968Z,60.00
2022-08-03T07:52:08.043Z,61.35
2022-08-03T07:53:07.806Z,61.87
2022-08-03T07:54:07.827Z,59.51
2022-08-03T07:55:07.823Z,59.92
2022-08-03T07:56:11.362Z,60.41
2022-08-03T07:57:08.142Z,59.83
2022-08-03T07:58:07.954Z,59.64
2022-08-03T07:59:07.829Z,59.03
2022-08-03T08:00:07.788Z,60.48
2022-08-03T08:01:07.828Z,59.51
2022-08-03T08:02:07.808Z,60.51
2022-08-03T08:03:07.768Z,60.51
2022-08-03T08:04:07.807Z,60.15
2022-08-03T08:05:07.780Z,59.28
2022-08-03T08:06:07.783Z,56.75
2022-08-03T08:07:07.773Z,58.79
2022-08-03T08:08:07.771Z,57.82
2022-08-03T08:09:07.768Z,58.21
2022-08-03T08:10:07.770Z,57.72
2022-08-03T08:11:07.791Z,57.53
2022-08-03T08:12:14.372Z,59.08
2022-08-03T08:13:07.775Z,58.50
2022-08-03T08:14:07.761Z,59.50
2022-08-03T08:15:07.782Z,58.43
2022-08-03T08:16:07.750Z,57.10
2022-08-03T08:17:07.768Z,55.05
2022-08-03T08:18:07.750Z,55.54
2022-08-03T08:19:07.792Z,56.74
2022-08-03T08:20:07.768Z,56.05
2022-08-03T08:21:08.682Z,56.12
2022-08-03T08:22:07.757Z,56.32
2022-08-03T08:23:19.931Z,56.71
2022-08-03T08:24:13.302Z,55.18
2022-08-03T08:25:07.780Z,54.82
2022-08-03T08:26:07.761Z,55.69
2022-08-03T08:27:07.759Z,54.33
2022-08-03T08:28:29.875Z,54.46
2022-08-03T08:29:07.755Z,53.58
2022-08-03T08:30:11.521Z,54.28
2022-08-03T08:31:07.749Z,55.36
2022-08-03T08:32:07.767Z,54.38
2022-08-03T08:33:08.743Z,53.09
2022-08-03T08:34:07.746Z,54.36
2022-08-03T08:35:07.754Z,53.70
2022-08-03T08:36:12.022Z,53.38
2022-08-03T08:37:07.762Z,54.19
2022-08-03T08:38:07.748Z,54.21
2022-08-03T08:39:07.737Z,52.78
2022-08-03T08:40:07.770Z,52.90
2022-08-03T08:41:07.748Z,52.51
2022-08-03T08:42:07.746Z,52.12
2022-08-03T08:43:07.783Z,52.51
2022-08-03T08:44:07.758Z,51.14
2022-08-03T08:45:07.774Z,50.95
2022-08-03T08:46:07.790Z,51.53
2022-08-03T08:47:07.758Z,51.53
2022-08-03T08:48:08.458Z,52.31
2022-08-03T08:49:07.825Z,52.80
2022-08-03T08:50:15.544Z,53.19
2022-08-03T08:51:07.751Z,52.83
2022-08-03T08:52:25.338Z,52.54
2022-08-03T08:53:09.639Z,50.90
2022-08-03T08:54:07.785Z,50.68
2022-08-03T08:55:07.775Z,49.90
2022-08-03T08:56:07.779Z,52.44
2022-08-03T08:57:26.584Z,51.39
2022-08-03T08:58:07.783Z,50.98
2022-08-03T08:59:07.800Z,53.25
2022-08-03T09:00:07.778Z,51.10
2022-08-03T09:01:07.857Z,49.61
2022-08-03T09:02:07.777Z,50.20
2022-08-03T09:03:07.779Z,51.78
2022-08-03T09:04:07.876Z,51.39
2022-08-03T09:05:07.882Z,50.42
2022-08-03T09:06:07.780Z,50.42
2022-08-03T09:07:19.713Z,50.12
2022-08-03T09:08:07.797Z,52.08
2022-08-03T09:09:07.799Z,49.14
2022-08-03T09:10:12.770Z,48.94
2022-08-03T09:11:07.781Z,49.71
2022-08-03T09:12:35.404Z,47.19
2022-08-03T09:13:07.812Z,48.85
2022-08-03T09:14:07.802Z,46.29
2022-08-03T09:15:17.010Z,48.90
2022-08-03T09:16:07.814Z,50.20
2022-08-03T09:17:07.992Z,49.12
2022-08-03T09:18:07.837Z,46.29
2022-08-03T09:19:07.805Z,44.43
2022-08-03T09:20:07.798Z,44.16
2022-08-03T09:21:29.623Z,43.49
2022-08-03T09:22:07.814Z,44.57
2022-08-03T09:23:24.979Z,44.38
2022-08-03T09:24:16.396Z,44.40
2022-08-03T09:25:24.272Z,45.47
2022-08-03T09:26:09.120Z,43.62
2022-08-03T09:27:07.843Z,43.24
2022-08-03T09:28:07.824Z,41.21
2022-08-03T09:29:13.236Z,41.58
2022-08-03T09:30:07.870Z,42.76
2022-08-03T09:31:07.798Z,44.23
2022-08-03T09:32:07.801Z,43.34
2022-08-03T09:33:08.401Z,41.86
2022-08-03T09:34:07.832Z,42.46
2022-08-03T09:35:09.478Z,42.05
2022-08-03T09:36:08.041Z,42.64
2022-08-03T09:37:08.030Z,43.40
2022-08-03T09:38:12.085Z,44.18
2022-08-03T09:39:07.835Z,44.28
2022-08-03T09:40:08.335Z,43.40
2022-08-03T09:41:07.832Z,44.18
2022-08-03T09:42:07.828Z,44.48
2022-08-03T09:43:07.829Z,44.87
2022-08-03T09:44:07.840Z,45.47
2022-08-03T09:45:07.834Z,44.10
2022-08-03T09:46:07.874Z,43.99
2022-08-03T09:47:07.876Z,44.67
2022-08-03T09:48:08.131Z,43.81
2022-08-03T09:49:11.566Z,45.47
2022-08-03T09:50:07.863Z,42.66
2022-08-03T09:51:13.252Z,43.34
2022-08-03T09:52:27.385Z,42.97
2022-08-03T09:53:07.826Z,43.38
2022-08-03T09:54:16.314Z,42.90
2022-08-03T09:55:07.876Z,40.84
2022-08-03T09:56:36.404Z,41.23
2022-08-03T09:57:08.130Z,43.46
2022-08-03T09:58:07.836Z,42.29
2022-08-03T09:59:07.871Z,41.62
2022-08-03T10:00:08.536Z,42.99
2022-08-03T10:01:08.019Z,40.95
2022-08-03T10:02:07.858Z,41.42
2022-08-03T10:03:07.861Z,41.82
2022-08-03T10:04:08.130Z,40.94
2022-08-03T10:05:07.877Z,41.84
2022-08-03T10:06:07.877Z,43.43
2022-08-03T10:07:07.906Z,41.29
2022-08-03T10:08:07.865Z,40.23
2022-08-03T10:09:07.882Z,39.64
2022-08-03T10:10:30.838Z,38.37
2022-08-03T10:11:07.879Z,39.35
2022-08-03T10:12:07.913Z,39.64
2022-08-03T10:13:08.082Z,40.55
2022-08-03T10:14:07.882Z,39.86
2022-08-03T10:15:07.883Z,38.66
2022-08-03T10:16:25.197Z,38.98
2022-08-03T10:17:07.886Z,38.29
2022-08-03T10:18:07.895Z,38.19
2022-08-03T10:19:07.921Z,37.99
2022-08-03T10:20:07.927Z,38.09
2022-08-03T10:21:08.086Z,38.27
2022-08-03T10:22:07.926Z,37.94
2022-08-03T10:23:07.909Z,40.17
2022-08-03T10:24:07.922Z,40.56
2022-08-03T10:25:07.909Z,39.96
2022-08-03T10:26:07.944Z,40.64
2022-08-03T10:27:07.936Z,41.35
2022-08-03T10:28:07.916Z,39.51
2022-08-03T10:29:10.072Z,38.92
2022-08-03T10:30:07.934Z,39.70
2022-08-03T10:31:07.920Z,40.41
2022-08-03T10:32:07.952Z,40.13
2022-08-03T10:33:15.280Z,38.78
2022-08-03T10:34:07.995Z,39.37
2022-08-03T10:35:19.619Z,39.47
2022-08-03T10:36:07.957Z,39.39
2022-08-03T10:37:07.963Z,37.30
2022-08-03T10:38:07.925Z,37.90
2022-08-03T10:39:15.927Z,37.50
2022-08-03T10:40:07.936Z,39.19
2022-08-03T10:41:08.193Z,38.70
2022-08-03T10:42:14.675Z,38.13
2022-08-03T10:43:07.961Z,37.15
2022-08-03T10:44:08.306Z,37.01
2022-08-03T10:45:07.951Z,36.68
2022-08-03T10:46:07.950Z,38.43
2022-08-03T10:47:08.004Z,39.22
2022-08-03T10:48:09.397Z,39.62
2022-08-03T10:49:08.053Z,38.23
2022-08-03T10:50:07.965Z,38.04
2022-08-03T10:51:07.995Z,37.94
2022-08-03T10:52:13.661Z,39.33
2022-08-03T10:53:08.010Z,37.37
2022-08-03T10:54:12.012Z,37.96
2022-08-03T10:55:10.758Z,39.01
2022-08-03T10:56:08.605Z,38.82
2022-08-03T10:57:14.243Z,39.80
2022-08-03T11:02:07.997Z,40.98
2022-08-03T11:03:08.038Z,39.41
2022-08-03T11:04:11.940Z,39.11
2022-08-03T11:05:08.011Z,38.60
2022-08-03T11:06:10.624Z,38.21
2022-08-03T11:07:08.011Z,40.56
2022-08-03T11:08:08.068Z,38.70
2022-08-03T11:09:08.432Z,39.09
2022-08-03T11:10:10.573Z,39.09
2022-08-03T11:11:08.043Z,38.72
2022-08-03T11:12:08.059Z,39.22
2022-08-03T11:13:08.048Z,38.23
2022-08-03T11:14:08.050Z,36.57
2022-08-03T11:15:08.035Z,37.65
2022-08-03T11:16:12.472Z,37.94
2022-08-03T11:17:08.045Z,39.31
2022-08-03T11:18:11.601Z,38.92
2022-08-03T11:19:08.105Z,37.73
2022-08-03T11:20:08.078Z,39.19
2022-08-03T11:21:08.858Z,37.73
2022-08-03T11:22:08.086Z,40.37
2022-08-03T11:23:10.662Z,39.41
2022-08-03T11:24:08.048Z,39.22
2022-08-03T11:25:08.049Z,37.74
2022-08-03T11:26:08.051Z,37.96
2022-08-03T11:27:08.062Z,38.23
2022-08-03T11:28:08.078Z,37.84
2022-08-03T11:29:08.067Z,38.54
2022-08-03T11:30:08.952Z,38.06
2022-08-03T11:31:08.088Z,37.96
2022-08-03T11:32:08.063Z,38.06
2022-08-03T11:33:08.066Z,38.35
2022-08-03T11:38:08.096Z,37.46
2022-08-03T11:39:08.088Z,38.96
2022-08-03T11:40:08.111Z,38.96
2022-08-03T11:41:08.088Z,37.98
2022-08-03T11:42:08.357Z,37.88
2022-08-03T11:43:08.346Z,37.80
2022-08-03T11:44:08.102Z,38.39
2022-08-03T11:45:08.107Z,38.48
2022-08-03T11:46:08.124Z,37.11
2022-08-03T11:47:08.094Z,37.99
2022-08-03T11:48:08.100Z,37.90
2022-08-03T11:49:10.726Z,38.39
2022-08-03T11:50:08.223Z,36.91
2022-08-03T11:51:11.161Z,37.60
2022-08-03T11:52:08.127Z,36.98
2022-08-03T11:53:08.127Z,38.46
2022-08-03T11:54:08.122Z,38.76
2022-08-03T11:55:08.127Z,38.64
2022-08-03T11:56:12.520Z,38.35
2022-08-03T11:57:08.141Z,37.96
2022-08-03T11:59:01.446Z,38.06
2022-08-03T11:59:20.470Z,37.84
2022-08-03T12:00:08.176Z,38.21
2022-08-03T12:01:08.132Z,38.80
2022-08-03T12:02:08.148Z,39.70
2022-08-03T12:03:08.273Z,39.01
2022-08-03T12:04:08.350Z,39.33
2022-08-03T12:05:08.164Z,38.64
2022-08-03T12:06:08.136Z,37.86
2022-08-03T12:07:08.144Z,38.84
2022-08-03T12:08:08.156Z,37.35
2022-08-03T12:09:08.176Z,40.01
2022-08-03T12:10:08.183Z,40.51
2022-08-03T12:11:08.182Z,39.35
2022-08-03T12:12:08.171Z,37.09
2022-08-03T12:14:26.889Z,37.48
2022-08-03T12:14:50.468Z,37.98
2022-08-03T12:15:08.182Z,36.80
2022-08-03T12:16:08.224Z,37.07
2022-08-03T12:17:08.176Z,37.66
2022-08-03T12:18:08.170Z,38.15
2022-08-03T12:19:08.187Z,38.25
2022-08-03T12:20:08.188Z,37.68
2022-08-03T12:21:08.184Z,38.07
2022-08-03T12:22:08.190Z,39.27
2022-08-03T12:23:08.197Z,36.80
2022-08-03T12:24:08.314Z,36.60
2022-08-03T12:25:08.194Z,38.46
2022-08-03T12:26:08.207Z,39.15
2022-08-03T12:27:08.253Z,37.80
2022-08-03T12:28:37.388Z,37.01
2022-08-03T12:29:08.199Z,35.64
2022-08-03T12:30:08.415Z,35.93
2022-08-03T12:31:08.199Z,35.74
2022-08-03T12:32:08.211Z,37.38
2022-08-03T12:33:08.207Z,37.19
2022-08-03T12:34:08.249Z,38.09
2022-08-03T12:35:08.240Z,37.11
2022-08-03T12:36:08.231Z,37.99
2022-08-03T12:37:22.263Z,36.52
2022-08-03T12:38:08.221Z,36.91
2022-08-03T12:39:08.230Z,37.60
2022-08-03T12:40:10.539Z,37.11
2022-08-03T12:41:08.239Z,37.80
2022-08-03T12:42:08.237Z,37.23
2022-08-03T12:43:08.240Z,36.44
2022-08-03T12:44:08.235Z,35.85
2022-08-03T12:45:08.239Z,36.44
2022-08-03T12:46:08.260Z,37.03
2022-08-03T12:47:08.239Z,36.42
2022-08-03T12:48:08.243Z,37.40
2022-08-03T12:49:08.407Z,37.72
2022-08-03T12:50:08.246Z,35.85
2022-08-03T12:51:08.473Z,37.03
2022-08-03T12:52:08.259Z,37.03
2022-08-03T12:53:09.148Z,37.13
2022-08-03T12:54:08.254Z,36.34
2022-08-03T12:55:08.257Z,37.01
2022-08-03T12:56:08.264Z,37.01
2022-08-03T12:57:08.466Z,35.44
2022-08-03T12:58:08.272Z,36.74
2022-08-03T12:59:08.299Z,35.16
2022-08-03T13:00:21.798Z,35.66